NCAR-RAP Real-Time Weather Data

Output produced by METARs form (06 May 2021  16:14 UTC)
found at http://weather.rap.ucar.edu/surface/
 
KHWD 061554Z 10SM FEW014 13/08 A3007 RMK AO2 SLP192 T01280083
KHWD 061502Z 28003KT 10SM SCT013 11/08 A3006 RMK AO2 T01110078
KHWD 061454Z 26004KT 10SM BKN013 11/07 A3005 RMK AO2 SLP186 T01110072 53012
KHWD 061354Z 32006KT 10SM OVC010 11/08 A3004 RMK AO2 SLP183 T01060078
KHWD 061254Z 28005KT 10SM OVC011 11/08 A3003 RMK AO2 SLP177 T01110083
KHWD 061154Z 32003KT 10SM OVC012 11/08 A3002 RMK AO2 SLP174 T01060083 10117 20106 58001
KHWD 061131Z 00000KT 10SM BKN012 11/08 A3002 RMK AO2 T01060083
KHWD 061054Z 00000KT 10SM FEW011 11/08 A3002 RMK AO2 SLP176 T01060083
KHWD 061052Z 00000KT 10SM SCT011 11/08 A3002 RMK AO2
KHWD 060954Z 00000KT 10SM BKN012 11/08 A3002 RMK AO2 SLP174 T01060078
KHWD 060854Z 34004KT 10SM BKN014 11/08 A3002 RMK AO2 SLP174 T01060083 50001
KHWD 060754Z 32005KT 10SM OVC011 11/09 A3003 RMK AO2 SLP176 T01110089 402390111
KHWD 060654Z 34005KT 10SM OVC010 12/09 A3002 RMK AO2 SLP176 T01170089
KHWD 060623Z 28005KT 10SM OVC010 12/09 A3002 RMK AO2 CIG 009V013 T01170089
KHWD 060554Z 33005KT 10SM OVC009 12/09 A3002 RMK AO2 SLP175 T01170089 10194 20111 51025
KHWD 060454Z 32008KT 10SM OVC008 11/09 A3001 RMK AO2 SLP170 T01110089
KHWD 060354Z 32008KT 10SM BKN006 12/09 A2998 RMK AO2 SLP161 T01170089